Time;durP1;ratioP1;P1;durP2;ratioP2;P2;SDS_P1;SDS_P2;PMS_P1;PMS_P2;Temp;Humidity;BMP_temperature;BMP_pressure;BME280_temperature;BME280_humidity;BME280_pressure;Samples;Min_cycle;Max_cycle;Signal;HPM_P1;HPM_P2
2023/02/24 00:00:29;;;;;;;2.2;2.2;;;;;;;4.2;100.0;101380;;;;
2023/02/24 00:01:11;;;;;;;2.2;2.2;;;;;;;4.2;100.0;101380;;;;
2023/02/24 00:02:04;;;;;;;2.2;2.2;;;;;;;4.2;100.0;101380;;;;
2023/02/24 00:03:05;;;;;;;2.2;2.2;;;;;;;4.2;100.0;101380;;;;
2023/02/24 00:04:00;;;;;;;2.2;2.2;;;;;;;4.2;100.0;101380;;;;
2023/02/24 00:05:00;;;;;;;2.0;2.0;;;;;;;4.2;100.0;101390;;;;
2023/02/24 00:06:03;;;;;;;2.0;2.0;;;;;;;4.2;100.0;101390;;;;
2023/02/24 00:07:01;;;;;;;2.0;2.0;;;;;;;4.2;100.0;101390;;;;
2023/02/24 00:08:00;;;;;;;2.0;2.0;;;;;;;4.2;100.0;101390;;;;
2023/02/24 00:09:01;;;;;;;2.0;2.0;;;;;;;4.2;100.0;101380;;;;
2023/02/24 00:10:01;;;;;;;2.0;2.0;;;;;;;4.2;100.0;101380;;;;
2023/02/24 00:11:07;;;;;;;2.0;2.0;;;;;;;4.1;100.0;101380;;;;
2023/02/24 00:12:02;;;;;;;2.0;2.0;;;;;;;4.1;100.0;101380;;;;
2023/02/24 00:13:00;;;;;;;2.0;2.0;;;;;;;4.1;100.0;101380;;;;
2023/02/24 00:14:01;;;;;;;2.0;2.0;;;;;;;4.1;100.0;101380;;;;
2023/02/24 00:15:00;;;;;;;2.0;2.0;;;;;;;4.1;100.0;101380;;;;
2023/02/24 00:16:01;;;;;;;2.0;2.0;;;;;;;4.1;100.0;101380;;;;
2023/02/24 00:17:01;;;;;;;2.0;2.0;;;;;;;4.1;100.0;101380;;;;
2023/02/24 00:18:05;;;;;;;2.0;2.0;;;;;;;4.1;100.0;101380;;;;
2023/02/24 00:19:00;;;;;;;2.0;2.0;;;;;;;4.2;100.0;101380;;;;
2023/02/24 00:20:00;;;;;;;2.0;2.0;;;;;;;4.2;100.0;101380;;;;
2023/02/24 00:21:04;;;;;;;2.0;2.0;;;;;;;4.2;100.0;101370;;;;
2023/02/24 00:22:01;;;;;;;2.0;2.0;;;;;;;4.2;100.0;101370;;;;
2023/02/24 00:23:00;;;;;;;2.0;2.0;;;;;;;4.1;100.0;101370;;;;
2023/02/24 00:24:00;;;;;;;2.0;2.0;;;;;;;4.1;100.0;101370;;;;
2023/02/24 00:25:02;;;;;;;2.2;2.2;;;;;;;4.1;100.0;101370;;;;
2023/02/24 00:26:01;;;;;;;2.2;2.2;;;;;;;4.1;100.0;101370;;;;
2023/02/24 00:27:06;;;;;;;2.2;2.2;;;;;;;4.1;100.0;101370;;;;
2023/02/24 00:28:01;;;;;;;2.2;2.2;;;;;;;4.1;100.0;101370;;;;
2023/02/24 00:29:02;;;;;;;2.2;2.2;;;;;;;4.0;100.0;101370;;;;
2023/02/24 00:30:00;;;;;;;2.2;2.2;;;;;;;4.0;100.0;101370;;;;
2023/02/24 00:31:03;;;;;;;2.2;2.2;;;;;;;4.0;100.0;101370;;;;
2023/02/24 00:32:05;;;;;;;2.2;2.2;;;;;;;4.0;100.0;101370;;;;
2023/02/24 00:33:01;;;;;;;2.2;2.2;;;;;;;4.1;100.0;101360;;;;
2023/02/24 00:34:01;;;;;;;2.2;2.2;;;;;;;4.1;100.0;101360;;;;
2023/02/24 00:35:00;;;;;;;2.2;2.2;;;;;;;4.1;100.0;101360;;;;
2023/02/24 00:36:10;;;;;;;2.2;2.2;;;;;;;4.1;100.0;101360;;;;
2023/02/24 00:37:01;;;;;;;2.2;2.2;;;;;;;4.2;100.0;101360;;;;
2023/02/24 00:38:00;;;;;;;2.2;2.2;;;;;;;4.2;100.0;101360;;;;
2023/02/24 00:39:08;;;;;;;2.2;2.2;;;;;;;4.2;100.0;101360;;;;
2023/02/24 00:40:00;;;;;;;2.2;2.2;;;;;;;4.2;100.0;101360;;;;
2023/02/24 00:41:06;;;;;;;2.2;2.2;;;;;;;4.2;100.0;101360;;;;
2023/02/24 00:42:05;;;;;;;2.2;2.2;;;;;;;4.2;100.0;101360;;;;
2023/02/24 00:43:00;;;;;;;2.2;2.2;;;;;;;4.2;100.0;101360;;;;
2023/02/24 00:44:05;;;;;;;2.0;2.0;;;;;;;4.2;100.0;101360;;;;
2023/02/24 00:45:06;;;;;;;2.0;2.0;;;;;;;4.2;100.0;101360;;;;
2023/02/24 00:46:01;;;;;;;2.0;2.0;;;;;;;4.2;100.0;101360;;;;
2023/02/24 00:47:01;;;;;;;2.0;2.0;;;;;;;4.1;100.0;101360;;;;
2023/02/24 00:48:03;;;;;;;2.0;2.0;;;;;;;4.1;100.0;101360;;;;
2023/02/24 00:49:04;;;;;;;2.0;2.0;;;;;;;4.3;100.0;101360;;;;
2023/02/24 00:50:00;;;;;;;2.0;2.0;;;;;;;4.3;100.0;101360;;;;
2023/02/24 00:51:00;;;;;;;2.0;2.0;;;;;;;4.4;100.0;101350;;;;
2023/02/24 00:52:03;;;;;;;2.0;2.0;;;;;;;4.4;100.0;101350;;;;
2023/02/24 00:53:00;;;;;;;2.0;2.0;;;;;;;4.3;100.0;101350;;;;
2023/02/24 00:54:01;;;;;;;2.0;2.0;;;;;;;4.3;100.0;101350;;;;
2023/02/24 00:55:00;;;;;;;2.0;2.0;;;;;;;4.4;100.0;101360;;;;
2023/02/24 00:56:01;;;;;;;2.0;2.0;;;;;;;4.4;100.0;101360;;;;
2023/02/24 00:57:01;;;;;;;2.0;2.0;;;;;;;4.3;100.0;101350;;;;
2023/02/24 00:58:02;;;;;;;2.0;2.0;;;;;;;4.3;100.0;101350;;;;
2023/02/24 00:59:01;;;;;;;2.0;2.0;;;;;;;4.4;100.0;101350;;;;
2023/02/24 01:00:00;;;;;;;2.0;2.0;;;;;;;4.4;100.0;101350;;;;
2023/02/24 01:01:01;;;;;;;2.0;2.0;;;;;;;4.4;100.0;101340;;;;
2023/02/24 01:02:02;;;;;;;2.0;2.0;;;;;;;4.4;100.0;101340;;;;
2023/02/24 01:03:00;;;;;;;2.0;2.0;;;;;;;4.3;100.0;101350;;;;
2023/02/24 01:04:04;;;;;;;2.3;2.3;;;;;;;4.3;100.0;101350;;;;
2023/02/24 01:05:03;;;;;;;2.3;2.3;;;;;;;4.4;100.0;101340;;;;
2023/02/24 01:06:02;;;;;;;2.3;2.3;;;;;;;4.4;100.0;101340;;;;
2023/02/24 01:07:01;;;;;;;2.3;2.3;;;;;;;4.4;100.0;101340;;;;
2023/02/24 01:08:01;;;;;;;2.3;2.3;;;;;;;4.4;100.0;101340;;;;
2023/02/24 01:09:00;;;;;;;2.3;2.3;;;;;;;4.4;100.0;101340;;;;
2023/02/24 01:10:00;;;;;;;2.3;2.3;;;;;;;4.4;100.0;101340;;;;
2023/02/24 01:13:00;;;;;;;2.3;2.3;;;;;;;4.5;100.0;101320;;;;
2023/02/24 01:14:03;;;;;;;2.3;2.3;;;;;;;4.5;100.0;101320;;;;
2023/02/24 01:15:01;;;;;;;2.3;2.3;;;;;;;4.4;100.0;101320;;;;
2023/02/24 01:16:01;;;;;;;2.3;2.3;;;;;;;4.4;100.0;101320;;;;
2023/02/24 01:17:00;;;;;;;2.3;2.3;;;;;;;4.6;100.0;101310;;;;
2023/02/24 01:18:00;;;;;;;2.3;2.3;;;;;;;4.6;100.0;101310;;;;
2023/02/24 01:19:01;;;;;;;2.3;2.3;;;;;;;4.5;100.0;101310;;;;
2023/02/24 01:20:14;;;;;;;2.3;2.3;;;;;;;4.5;100.0;101310;;;;
2023/02/24 01:21:00;;;;;;;2.3;2.3;;;;;;;4.4;100.0;101310;;;;
2023/02/24 01:22:02;;;;;;;2.3;2.3;;;;;;;4.4;100.0;101310;;;;
2023/02/24 01:23:02;;;;;;;2.3;2.3;;;;;;;4.5;100.0;101300;;;;
2023/02/24 01:24:00;;;;;;;2.1;2.1;;;;;;;4.5;100.0;101300;;;;
2023/02/24 01:25:00;;;;;;;2.1;2.1;;;;;;;4.6;100.0;101310;;;;
2023/02/24 01:26:01;;;;;;;2.1;2.1;;;;;;;4.6;100.0;101310;;;;
2023/02/24 01:27:00;;;;;;;2.1;2.1;;;;;;;4.6;100.0;101310;;;;
2023/02/24 01:28:00;;;;;;;2.1;2.1;;;;;;;4.6;100.0;101310;;;;
2023/02/24 01:29:00;;;;;;;2.1;2.1;;;;;;;4.7;100.0;101310;;;;
2023/02/24 01:30:00;;;;;;;2.1;2.1;;;;;;;4.7;100.0;101310;;;;
2023/02/24 01:31:01;;;;;;;2.1;2.1;;;;;;;4.5;100.0;101310;;;;
2023/02/24 01:32:01;;;;;;;2.1;2.1;;;;;;;4.5;100.0;101310;;;;
2023/02/24 01:33:01;;;;;;;2.1;2.1;;;;;;;4.5;100.0;101300;;;;
2023/02/24 01:34:04;;;;;;;2.1;2.1;;;;;;;4.5;100.0;101300;;;;
2023/02/24 01:35:00;;;;;;;2.1;2.1;;;;;;;4.4;100.0;101300;;;;
2023/02/24 01:36:11;;;;;;;2.1;2.1;;;;;;;4.4;100.0;101300;;;;
2023/02/24 01:37:00;;;;;;;2.1;2.1;;;;;;;4.5;100.0;101300;;;;
2023/02/24 01:38:00;;;;;;;2.1;2.1;;;;;;;4.5;100.0;101300;;;;
2023/02/24 01:39:00;;;;;;;2.1;2.1;;;;;;;4.5;100.0;101290;;;;
2023/02/24 01:40:09;;;;;;;2.1;2.1;;;;;;;4.5;100.0;101290;;;;
2023/02/24 01:41:03;;;;;;;2.1;2.1;;;;;;;4.5;100.0;101290;;;;
2023/02/24 01:42:02;;;;;;;2.1;2.1;;;;;;;4.5;100.0;101290;;;;
2023/02/24 01:43:00;;;;;;;2.1;2.1;;;;;;;4.5;100.0;101290;;;;
2023/02/24 01:44:02;;;;;;;2.1;2.1;;;;;;;4.5;100.0;101290;;;;
2023/02/24 01:45:01;;;;;;;2.1;2.1;;;;;;;4.5;100.0;101280;;;;
2023/02/24 01:46:01;;;;;;;2.1;2.1;;;;;;;4.5;100.0;101280;;;;
2023/02/24 01:47:00;;;;;;;2.1;2.1;;;;;;;4.4;100.0;101280;;;;
2023/02/24 01:48:04;;;;;;;2.1;2.1;;;;;;;4.4;100.0;101280;;;;
2023/02/24 01:49:07;;;;;;;2.1;2.1;;;;;;;4.3;100.0;101270;;;;
2023/02/24 01:50:01;;;;;;;2.1;2.1;;;;;;;4.3;100.0;101270;;;;
2023/02/24 01:51:00;;;;;;;2.1;2.1;;;;;;;4.4;100.0;101270;;;;
2023/02/24 01:52:03;;;;;;;2.1;2.1;;;;;;;4.4;100.0;101270;;;;
2023/02/24 01:53:02;;;;;;;2.1;2.1;;;;;;;4.3;100.0;101270;;;;
2023/02/24 01:54:01;;;;;;;2.1;2.1;;;;;;;4.3;100.0;101270;;;;
2023/02/24 01:55:06;;;;;;;2.1;2.1;;;;;;;4.5;100.0;101270;;;;
2023/02/24 01:56:00;;;;;;;2.1;2.1;;;;;;;4.5;100.0;101270;;;;
2023/02/24 01:57:04;;;;;;;2.1;2.1;;;;;;;4.5;100.0;101250;;;;
2023/02/24 01:58:03;;;;;;;2.1;2.1;;;;;;;4.5;100.0;101250;;;;
2023/02/24 01:59:01;;;;;;;2.1;2.1;;;;;;;4.5;100.0;101250;;;;
2023/02/24 02:00:11;;;;;;;2.1;2.1;;;;;;;4.5;100.0;101250;;;;
2023/02/24 02:01:07;;;;;;;2.1;2.1;;;;;;;4.5;100.0;101250;;;;
2023/02/24 02:02:02;;;;;;;2.1;2.1;;;;;;;4.5;100.0;101250;;;;
2023/02/24 02:03:06;;;;;;;2.1;2.1;;;;;;;4.4;100.0;101250;;;;
2023/02/24 02:04:04;;;;;;;2.0;2.0;;;;;;;4.4;100.0;101250;;;;
2023/02/24 02:05:03;;;;;;;2.0;2.0;;;;;;;4.4;100.0;101240;;;;
2023/02/24 02:06:02;;;;;;;2.0;2.0;;;;;;;4.4;100.0;101240;;;;
2023/02/24 02:07:01;;;;;;;2.0;2.0;;;;;;;4.4;100.0;101240;;;;
2023/02/24 02:08:01;;;;;;;2.0;2.0;;;;;;;4.4;100.0;101240;;;;
2023/02/24 02:09:01;;;;;;;2.0;2.0;;;;;;;4.3;100.0;101230;;;;
2023/02/24 02:10:02;;;;;;;2.0;2.0;;;;;;;4.3;100.0;101230;;;;
2023/02/24 02:11:03;;;;;;;2.0;2.0;;;;;;;4.4;100.0;101230;;;;
2023/02/24 02:12:00;;;;;;;2.0;2.0;;;;;;;4.4;100.0;101230;;;;
2023/02/24 02:13:03;;;;;;;2.0;2.0;;;;;;;4.4;100.0;101230;;;;
2023/02/24 02:14:01;;;;;;;2.0;2.0;;;;;;;4.4;100.0;101230;;;;
2023/02/24 02:15:00;;;;;;;2.0;2.0;;;;;;;4.4;100.0;101220;;;;
2023/02/24 02:16:01;;;;;;;2.0;2.0;;;;;;;4.4;100.0;101220;;;;
2023/02/24 02:17:07;;;;;;;2.0;2.0;;;;;;;4.4;100.0;101220;;;;
2023/02/24 02:18:06;;;;;;;2.0;2.0;;;;;;;4.4;100.0;101220;;;;
2023/02/24 02:19:10;;;;;;;2.0;2.0;;;;;;;4.5;100.0;101220;;;;
2023/02/24 02:20:14;;;;;;;2.0;2.0;;;;;;;4.5;100.0;101220;;;;
2023/02/24 02:21:00;;;;;;;2.0;2.0;;;;;;;4.4;100.0;101210;;;;
2023/02/24 02:22:01;;;;;;;2.0;2.0;;;;;;;4.4;100.0;101210;;;;
2023/02/24 02:23:00;;;;;;;2.0;2.0;;;;;;;4.4;100.0;101210;;;;
2023/02/24 02:24:03;;;;;;;2.1;2.1;;;;;;;4.4;100.0;101210;;;;
2023/02/24 02:25:08;;;;;;;2.1;2.1;;;;;;;4.5;100.0;101200;;;;
2023/02/24 02:26:09;;;;;;;2.1;2.1;;;;;;;4.5;100.0;101200;;;;
2023/02/24 02:27:10;;;;;;;2.1;2.1;;;;;;;4.3;100.0;101200;;;;
2023/02/24 02:28:10;;;;;;;2.1;2.1;;;;;;;4.3;100.0;101200;;;;
2023/02/24 02:29:10;;;;;;;2.1;2.1;;;;;;;4.2;100.0;101190;;;;
2023/02/24 02:30:05;;;;;;;2.1;2.1;;;;;;;4.2;100.0;101190;;;;
2023/02/24 02:31:11;;;;;;;2.1;2.1;;;;;;;4.1;100.0;101190;;;;
2023/02/24 02:32:10;;;;;;;2.1;2.1;;;;;;;4.1;100.0;101190;;;;
2023/02/24 02:33:00;;;;;;;2.1;2.1;;;;;;;4.1;100.0;101180;;;;
2023/02/24 02:34:06;;;;;;;2.1;2.1;;;;;;;4.1;100.0;101180;;;;
2023/02/24 02:35:01;;;;;;;2.1;2.1;;;;;;;4.0;100.0;101180;;;;
2023/02/24 02:36:00;;;;;;;2.1;2.1;;;;;;;4.0;100.0;101180;;;;
2023/02/24 02:37:11;;;;;;;2.1;2.1;;;;;;;3.9;100.0;101190;;;;
2023/02/24 02:38:07;;;;;;;2.1;2.1;;;;;;;3.9;100.0;101190;;;;
2023/02/24 02:39:10;;;;;;;2.1;2.1;;;;;;;4.0;100.0;101190;;;;
2023/02/24 02:40:15;;;;;;;2.1;2.1;;;;;;;4.0;100.0;101190;;;;
2023/02/24 02:41:08;;;;;;;2.1;2.1;;;;;;;3.9;100.0;101190;;;;
2023/02/24 02:42:13;;;;;;;2.1;2.1;;;;;;;3.9;100.0;101190;;;;
2023/02/24 02:43:10;;;;;;;2.1;2.1;;;;;;;3.9;100.0;101180;;;;
2023/02/24 02:44:10;;;;;;;2.2;2.2;;;;;;;3.9;100.0;101180;;;;
2023/02/24 02:45:06;;;;;;;2.2;2.2;;;;;;;3.9;100.0;101180;;;;
2023/02/24 02:46:13;;;;;;;2.2;2.2;;;;;;;3.9;100.0;101180;;;;
2023/02/24 02:47:04;;;;;;;2.2;2.2;;;;;;;3.8;100.0;101180;;;;
2023/02/24 02:48:05;;;;;;;2.2;2.2;;;;;;;3.8;100.0;101180;;;;
2023/02/24 02:49:05;;;;;;;2.2;2.2;;;;;;;3.7;100.0;101180;;;;
2023/02/24 02:50:06;;;;;;;2.2;2.2;;;;;;;3.7;100.0;101180;;;;
2023/02/24 02:51:05;;;;;;;2.2;2.2;;;;;;;3.7;100.0;101170;;;;
2023/02/24 02:52:04;;;;;;;2.2;2.2;;;;;;;3.7;100.0;101170;;;;
2023/02/24 02:53:07;;;;;;;2.2;2.2;;;;;;;3.7;100.0;101170;;;;
2023/02/24 02:54:01;;;;;;;2.2;2.2;;;;;;;3.7;100.0;101170;;;;
2023/02/24 02:55:07;;;;;;;2.2;2.2;;;;;;;3.6;100.0;101160;;;;
2023/02/24 02:56:05;;;;;;;2.2;2.2;;;;;;;3.6;100.0;101160;;;;
2023/02/24 02:57:07;;;;;;;2.2;2.2;;;;;;;3.5;100.0;101170;;;;
2023/02/24 02:58:01;;;;;;;2.2;2.2;;;;;;;3.5;100.0;101170;;;;
2023/02/24 02:59:00;;;;;;;2.2;2.2;;;;;;;3.5;100.0;101170;;;;
2023/02/24 03:00:12;;;;;;;2.2;2.2;;;;;;;3.5;100.0;101170;;;;
2023/02/24 03:01:03;;;;;;;2.2;2.2;;;;;;;3.5;100.0;101170;;;;
2023/02/24 03:02:13;;;;;;;2.2;2.2;;;;;;;3.5;100.0;101170;;;;
2023/02/24 03:03:06;;;;;;;2.2;2.2;;;;;;;3.4;100.0;101170;;;;
2023/02/24 03:04:06;;;;;;;2.1;2.1;;;;;;;3.4;100.0;101170;;;;
2023/02/24 03:05:01;;;;;;;2.1;2.1;;;;;;;3.4;100.0;101160;;;;
2023/02/24 03:06:03;;;;;;;2.1;2.1;;;;;;;3.4;100.0;101160;;;;
2023/02/24 03:07:02;;;;;;;2.1;2.1;;;;;;;3.4;100.0;101160;;;;
2023/02/24 03:08:03;;;;;;;2.1;2.1;;;;;;;3.4;100.0;101160;;;;
2023/02/24 03:09:10;;;;;;;2.1;2.1;;;;;;;3.4;100.0;101160;;;;
2023/02/24 03:10:05;;;;;;;2.1;2.1;;;;;;;3.4;100.0;101160;;;;
2023/02/24 03:11:01;;;;;;;2.1;2.1;;;;;;;3.3;100.0;101160;;;;
2023/02/24 03:12:06;;;;;;;2.1;2.1;;;;;;;3.3;100.0;101160;;;;
2023/02/24 03:13:03;;;;;;;2.1;2.1;;;;;;;3.2;100.0;101150;;;;
2023/02/24 03:14:01;;;;;;;2.1;2.1;;;;;;;3.2;100.0;101150;;;;
2023/02/24 03:15:03;;;;;;;2.1;2.1;;;;;;;3.1;100.0;101150;;;;
2023/02/24 03:16:02;;;;;;;2.1;2.1;;;;;;;3.1;100.0;101150;;;;
2023/02/24 03:17:03;;;;;;;2.1;2.1;;;;;;;3.1;100.0;101150;;;;
2023/02/24 03:18:08;;;;;;;2.1;2.1;;;;;;;3.1;100.0;101150;;;;
2023/02/24 03:19:04;;;;;;;2.1;2.1;;;;;;;3.2;100.0;101150;;;;
2023/02/24 03:20:15;;;;;;;2.1;2.1;;;;;;;3.2;100.0;101150;;;;
2023/02/24 03:21:10;;;;;;;2.1;2.1;;;;;;;3.1;100.0;101150;;;;
2023/02/24 03:22:05;;;;;;;2.1;2.1;;;;;;;3.1;100.0;101150;;;;
2023/02/24 03:23:04;;;;;;;2.1;2.1;;;;;;;3.1;100.0;101150;;;;
2023/02/24 03:24:01;;;;;;;2.2;2.2;;;;;;;3.1;100.0;101150;;;;
2023/02/24 03:25:03;;;;;;;2.2;2.2;;;;;;;3.0;100.0;101150;;;;
2023/02/24 03:26:06;;;;;;;2.2;2.2;;;;;;;3.0;100.0;101150;;;;
2023/02/24 03:27:05;;;;;;;2.2;2.2;;;;;;;2.9;100.0;101140;;;;
2023/02/24 03:28:06;;;;;;;2.2;2.2;;;;;;;2.9;100.0;101140;;;;
2023/02/24 03:29:10;;;;;;;2.2;2.2;;;;;;;2.9;100.0;101140;;;;
2023/02/24 03:30:08;;;;;;;2.2;2.2;;;;;;;2.9;100.0;101140;;;;
2023/02/24 03:31:05;;;;;;;2.2;2.2;;;;;;;2.9;100.0;101130;;;;
2023/02/24 03:32:04;;;;;;;2.2;2.2;;;;;;;2.9;100.0;101130;;;;
2023/02/24 03:33:04;;;;;;;2.2;2.2;;;;;;;2.9;100.0;101130;;;;
2023/02/24 03:34:04;;;;;;;2.2;2.2;;;;;;;2.9;100.0;101130;;;;
2023/02/24 03:35:09;;;;;;;2.2;2.2;;;;;;;3.0;100.0;101130;;;;
2023/02/24 03:36:00;;;;;;;2.2;2.2;;;;;;;3.0;100.0;101130;;;;
2023/02/24 03:37:00;;;;;;;2.2;2.2;;;;;;;2.9;100.0;101120;;;;
2023/02/24 03:38:01;;;;;;;2.2;2.2;;;;;;;2.9;100.0;101120;;;;
2023/02/24 03:39:01;;;;;;;2.2;2.2;;;;;;;2.9;100.0;101120;;;;
2023/02/24 03:41:00;;;;;;;2.2;2.2;;;;;;;2.9;100.0;101120;;;;
2023/02/24 03:42:04;;;;;;;2.2;2.2;;;;;;;2.9;100.0;101120;;;;
2023/02/24 03:43:07;;;;;;;2.2;2.2;;;;;;;2.9;100.0;101110;;;;
2023/02/24 03:44:00;;;;;;;2.7;2.6;;;;;;;2.9;100.0;101110;;;;
2023/02/24 03:45:01;;;;;;;2.7;2.6;;;;;;;2.9;100.0;101120;;;;
2023/02/24 03:46:00;;;;;;;2.7;2.6;;;;;;;2.9;100.0;101120;;;;
2023/02/24 03:47:01;;;;;;;2.7;2.6;;;;;;;2.8;100.0;101110;;;;
2023/02/24 03:48:02;;;;;;;2.7;2.6;;;;;;;2.8;100.0;101110;;;;
2023/02/24 03:49:05;;;;;;;2.7;2.6;;;;;;;2.8;100.0;101110;;;;
2023/02/24 03:50:00;;;;;;;2.7;2.6;;;;;;;2.8;100.0;101110;;;;
2023/02/24 03:51:02;;;;;;;2.7;2.6;;;;;;;2.8;100.0;101100;;;;
2023/02/24 03:52:07;;;;;;;2.7;2.6;;;;;;;2.8;100.0;101100;;;;
2023/02/24 03:53:05;;;;;;;2.7;2.6;;;;;;;2.8;100.0;101110;;;;
2023/02/24 03:54:10;;;;;;;2.7;2.6;;;;;;;2.8;100.0;101110;;;;
2023/02/24 03:55:09;;;;;;;2.7;2.6;;;;;;;2.7;100.0;101110;;;;
2023/02/24 03:56:10;;;;;;;2.7;2.6;;;;;;;2.7;100.0;101110;;;;
2023/02/24 03:57:11;;;;;;;2.7;2.6;;;;;;;2.7;100.0;101110;;;;
2023/02/24 03:58:11;;;;;;;2.7;2.6;;;;;;;2.7;100.0;101110;;;;
2023/02/24 03:59:11;;;;;;;2.7;2.6;;;;;;;2.7;100.0;101110;;;;
2023/02/24 04:01:09;;;;;;;2.7;2.6;;;;;;;2.7;100.0;101110;;;;
2023/02/24 04:02:01;;;;;;;2.7;2.6;;;;;;;2.7;100.0;101110;;;;
2023/02/24 04:03:09;;;;;;;2.8;2.7;;;;;;;2.7;100.0;101110;;;;
2023/02/24 04:04:03;;;;;;;2.8;2.7;;;;;;;2.7;100.0;101110;;;;
2023/02/24 04:05:10;;;;;;;2.8;2.7;;;;;;;2.7;100.0;101100;;;;
2023/02/24 04:06:10;;;;;;;2.8;2.7;;;;;;;2.7;100.0;101100;;;;
2023/02/24 04:07:09;;;;;;;2.8;2.7;;;;;;;2.7;100.0;101100;;;;
2023/02/24 04:08:03;;;;;;;2.8;2.7;;;;;;;2.7;100.0;101100;;;;
2023/02/24 04:09:05;;;;;;;2.8;2.7;;;;;;;2.7;100.0;101100;;;;
2023/02/24 04:10:08;;;;;;;2.8;2.7;;;;;;;2.7;100.0;101100;;;;
2023/02/24 04:11:04;;;;;;;2.8;2.7;;;;;;;2.6;100.0;101090;;;;
2023/02/24 04:12:08;;;;;;;2.8;2.7;;;;;;;2.6;100.0;101090;;;;
2023/02/24 04:13:10;;;;;;;2.8;2.7;;;;;;;2.6;100.0;101090;;;;
2023/02/24 04:14:11;;;;;;;2.8;2.7;;;;;;;2.6;100.0;101090;;;;
2023/02/24 04:15:08;;;;;;;2.8;2.7;;;;;;;2.6;100.0;101090;;;;
2023/02/24 04:16:07;;;;;;;2.8;2.7;;;;;;;2.6;100.0;101090;;;;
2023/02/24 04:17:06;;;;;;;2.8;2.7;;;;;;;2.6;100.0;101090;;;;
2023/02/24 04:18:07;;;;;;;2.8;2.7;;;;;;;2.6;100.0;101090;;;;
2023/02/24 04:19:03;;;;;;;2.8;2.7;;;;;;;2.6;100.0;101090;;;;
2023/02/24 04:21:02;;;;;;;2.8;2.7;;;;;;;2.6;100.0;101100;;;;
2023/02/24 04:22:02;;;;;;;2.8;2.7;;;;;;;2.6;100.0;101100;;;;
2023/02/24 04:23:07;;;;;;;2.7;2.6;;;;;;;2.5;100.0;101090;;;;
2023/02/24 04:24:07;;;;;;;2.7;2.6;;;;;;;2.5;100.0;101090;;;;
2023/02/24 04:25:04;;;;;;;2.7;2.6;;;;;;;2.5;100.0;101090;;;;
2023/02/24 04:26:01;;;;;;;2.7;2.6;;;;;;;2.5;100.0;101090;;;;
2023/02/24 04:27:03;;;;;;;2.7;2.6;;;;;;;2.5;100.0;101090;;;;
2023/02/24 04:28:02;;;;;;;2.7;2.6;;;;;;;2.5;100.0;101090;;;;
2023/02/24 04:29:01;;;;;;;2.7;2.6;;;;;;;2.6;100.0;101080;;;;
2023/02/24 04:30:01;;;;;;;2.7;2.6;;;;;;;2.6;100.0;101080;;;;
2023/02/24 04:31:05;;;;;;;2.7;2.6;;;;;;;2.6;100.0;101090;;;;
2023/02/24 04:32:05;;;;;;;2.7;2.6;;;;;;;2.6;100.0;101090;;;;
2023/02/24 04:33:00;;;;;;;2.7;2.6;;;;;;;2.5;100.0;101080;;;;
2023/02/24 04:34:00;;;;;;;2.7;2.6;;;;;;;2.5;100.0;101080;;;;
2023/02/24 04:35:05;;;;;;;2.7;2.6;;;;;;;2.5;100.0;101080;;;;
2023/02/24 04:36:00;;;;;;;2.7;2.6;;;;;;;2.5;100.0;101080;;;;
2023/02/24 04:37:01;;;;;;;2.7;2.6;;;;;;;2.5;100.0;101090;;;;
2023/02/24 04:38:00;;;;;;;2.7;2.6;;;;;;;2.5;100.0;101090;;;;
2023/02/24 04:39:00;;;;;;;2.7;2.6;;;;;;;2.5;100.0;101080;;;;
2023/02/24 04:40:01;;;;;;;2.7;2.6;;;;;;;2.5;100.0;101080;;;;
2023/02/24 04:41:00;;;;;;;2.7;2.6;;;;;;;2.5;100.0;101080;;;;
2023/02/24 04:42:00;;;;;;;2.7;2.6;;;;;;;2.5;100.0;101080;;;;
2023/02/24 04:43:01;;;;;;;2.8;2.7;;;;;;;2.5;100.0;101080;;;;
2023/02/24 04:44:00;;;;;;;2.8;2.7;;;;;;;2.5;100.0;101080;;;;
2023/02/24 04:45:00;;;;;;;2.8;2.7;;;;;;;2.5;100.0;101080;;;;
2023/02/24 04:46:06;;;;;;;2.8;2.7;;;;;;;2.5;100.0;101080;;;;
2023/02/24 04:47:02;;;;;;;2.8;2.7;;;;;;;2.5;100.0;101070;;;;
2023/02/24 04:48:02;;;;;;;2.8;2.7;;;;;;;2.5;100.0;101070;;;;
2023/02/24 04:49:01;;;;;;;2.8;2.7;;;;;;;2.6;100.0;101070;;;;
2023/02/24 04:50:00;;;;;;;2.8;2.7;;;;;;;2.6;100.0;101070;;;;
2023/02/24 04:51:01;;;;;;;2.8;2.7;;;;;;;2.6;100.0;101060;;;;
2023/02/24 04:52:00;;;;;;;2.8;2.7;;;;;;;2.6;100.0;101060;;;;
2023/02/24 04:53:01;;;;;;;2.8;2.7;;;;;;;2.6;100.0;101060;;;;
2023/02/24 04:54:02;;;;;;;2.8;2.7;;;;;;;2.6;100.0;101060;;;;
2023/02/24 04:55:02;;;;;;;2.8;2.7;;;;;;;2.5;100.0;101060;;;;
2023/02/24 04:56:07;;;;;;;2.8;2.7;;;;;;;2.5;100.0;101060;;;;
2023/02/24 04:57:00;;;;;;;2.8;2.7;;;;;;;2.6;100.0;101060;;;;
2023/02/24 04:58:01;;;;;;;2.8;2.7;;;;;;;2.6;100.0;101060;;;;
2023/02/24 04:59:01;;;;;;;2.8;2.7;;;;;;;2.6;100.0;101060;;;;
2023/02/24 05:00:00;;;;;;;2.8;2.7;;;;;;;2.6;100.0;101060;;;;
2023/02/24 05:01:07;;;;;;;2.8;2.7;;;;;;;2.7;100.0;101060;;;;
2023/02/24 05:02:00;;;;;;;2.8;2.7;;;;;;;2.7;100.0;101060;;;;
2023/02/24 05:03:02;;;;;;;3.0;2.9;;;;;;;2.7;100.0;101050;;;;
2023/02/24 05:04:00;;;;;;;3.0;2.9;;;;;;;2.7;100.0;101050;;;;
2023/02/24 05:05:01;;;;;;;3.0;2.9;;;;;;;2.7;100.0;101050;;;;
2023/02/24 05:06:00;;;;;;;3.0;2.9;;;;;;;2.7;100.0;101050;;;;
2023/02/24 05:07:01;;;;;;;3.0;2.9;;;;;;;2.8;100.0;101040;;;;
2023/02/24 05:08:02;;;;;;;3.0;2.9;;;;;;;2.8;100.0;101040;;;;
2023/02/24 05:09:00;;;;;;;3.0;2.9;;;;;;;2.8;100.0;101040;;;;
2023/02/24 05:10:01;;;;;;;3.0;2.9;;;;;;;2.8;100.0;101040;;;;
2023/02/24 05:11:03;;;;;;;3.0;2.9;;;;;;;2.7;100.0;101040;;;;
2023/02/24 05:12:01;;;;;;;3.0;2.9;;;;;;;2.7;100.0;101040;;;;
2023/02/24 05:13:02;;;;;;;3.0;2.9;;;;;;;2.7;100.0;101030;;;;
2023/02/24 05:14:03;;;;;;;3.0;2.9;;;;;;;2.7;100.0;101030;;;;
2023/02/24 05:15:00;;;;;;;3.0;2.9;;;;;;;2.8;100.0;101030;;;;
2023/02/24 05:16:06;;;;;;;3.0;2.9;;;;;;;2.8;100.0;101030;;;;
2023/02/24 05:17:01;;;;;;;3.0;2.9;;;;;;;2.8;100.0;101030;;;;
2023/02/24 05:18:06;;;;;;;3.0;2.9;;;;;;;2.8;100.0;101030;;;;
2023/02/24 05:22:02;;;;;;;3.0;2.9;;;;;;;2.7;100.0;101030;;;;
2023/02/24 05:23:01;;;;;;;2.3;2.3;;;;;;;2.8;100.0;101020;;;;
2023/02/24 05:24:05;;;;;;;2.3;2.3;;;;;;;2.8;100.0;101020;;;;
2023/02/24 05:25:00;;;;;;;2.3;2.3;;;;;;;2.8;100.0;101020;;;;
2023/02/24 05:26:01;;;;;;;2.3;2.3;;;;;;;2.8;100.0;101020;;;;
2023/02/24 05:27:02;;;;;;;2.3;2.3;;;;;;;2.8;100.0;101020;;;;
2023/02/24 05:28:02;;;;;;;2.3;2.3;;;;;;;2.8;100.0;101020;;;;
2023/02/24 05:29:01;;;;;;;2.3;2.3;;;;;;;2.8;100.0;101010;;;;
2023/02/24 05:30:01;;;;;;;2.3;2.3;;;;;;;2.8;100.0;101010;;;;
2023/02/24 05:31:06;;;;;;;2.3;2.3;;;;;;;2.8;100.0;101010;;;;
2023/02/24 05:32:02;;;;;;;2.3;2.3;;;;;;;2.8;100.0;101010;;;;
2023/02/24 05:33:00;;;;;;;2.3;2.3;;;;;;;2.8;100.0;101010;;;;
2023/02/24 05:34:01;;;;;;;2.3;2.3;;;;;;;2.8;100.0;101010;;;;
2023/02/24 05:35:00;;;;;;;2.3;2.3;;;;;;;2.8;100.0;101010;;;;
2023/02/24 05:36:02;;;;;;;2.3;2.3;;;;;;;2.8;100.0;101010;;;;
2023/02/24 05:37:06;;;;;;;2.3;2.3;;;;;;;2.8;100.0;101000;;;;
2023/02/24 05:38:00;;;;;;;2.3;2.3;;;;;;;2.8;100.0;101000;;;;
2023/02/24 05:39:05;;;;;;;2.3;2.3;;;;;;;2.8;100.0;101000;;;;
2023/02/24 05:40:00;;;;;;;2.3;2.3;;;;;;;2.8;100.0;101000;;;;
2023/02/24 05:41:07;;;;;;;2.3;2.3;;;;;;;2.8;100.0;101000;;;;
2023/02/24 05:42:05;;;;;;;2.3;2.3;;;;;;;2.8;100.0;101000;;;;
2023/02/24 05:43:03;;;;;;;2.4;2.4;;;;;;;2.8;100.0;101000;;;;
2023/02/24 05:44:03;;;;;;;2.4;2.4;;;;;;;2.8;100.0;101000;;;;
2023/02/24 05:45:00;;;;;;;2.4;2.4;;;;;;;2.8;100.0;100990;;;;
2023/02/24 05:46:03;;;;;;;2.4;2.4;;;;;;;2.8;100.0;100990;;;;
2023/02/24 05:47:01;;;;;;;2.4;2.4;;;;;;;2.7;100.0;100990;;;;
2023/02/24 05:48:00;;;;;;;2.4;2.4;;;;;;;2.7;100.0;100990;;;;
2023/02/24 05:49:02;;;;;;;2.4;2.4;;;;;;;2.8;100.0;100990;;;;
2023/02/24 05:50:00;;;;;;;2.4;2.4;;;;;;;2.8;100.0;100990;;;;
2023/02/24 05:51:02;;;;;;;2.4;2.4;;;;;;;2.9;100.0;100980;;;;
2023/02/24 05:52:06;;;;;;;2.4;2.4;;;;;;;2.9;100.0;100980;;;;
2023/02/24 05:53:02;;;;;;;2.4;2.4;;;;;;;2.8;100.0;100980;;;;
2023/02/24 05:54:03;;;;;;;2.4;2.4;;;;;;;2.8;100.0;100980;;;;
2023/02/24 05:55:05;;;;;;;2.4;2.4;;;;;;;2.9;100.0;100970;;;;
2023/02/24 05:56:01;;;;;;;2.4;2.4;;;;;;;2.9;100.0;100970;;;;
2023/02/24 05:57:01;;;;;;;2.4;2.4;;;;;;;2.8;100.0;100970;;;;
2023/02/24 05:58:05;;;;;;;2.4;2.4;;;;;;;2.8;100.0;100970;;;;
2023/02/24 05:59:02;;;;;;;2.4;2.4;;;;;;;2.8;100.0;100970;;;;
2023/02/24 06:00:11;;;;;;;2.4;2.4;;;;;;;2.8;100.0;100970;;;;
2023/02/24 06:01:07;;;;;;;2.4;2.4;;;;;;;2.8;100.0;100960;;;;
2023/02/24 06:02:05;;;;;;;2.4;2.4;;;;;;;2.8;100.0;100960;;;;
2023/02/24 06:03:07;;;;;;;2.2;2.2;;;;;;;2.8;100.0;100960;;;;
2023/02/24 06:04:04;;;;;;;2.2;2.2;;;;;;;2.8;100.0;100960;;;;
2023/02/24 06:05:03;;;;;;;2.2;2.2;;;;;;;2.8;100.0;100960;;;;
2023/02/24 06:06:07;;;;;;;2.2;2.2;;;;;;;2.8;100.0;100960;;;;
2023/02/24 06:07:02;;;;;;;2.2;2.2;;;;;;;2.8;100.0;100960;;;;
2023/02/24 06:08:05;;;;;;;2.2;2.2;;;;;;;2.8;100.0;100960;;;;
2023/02/24 06:09:06;;;;;;;2.2;2.2;;;;;;;2.8;100.0;100950;;;;
2023/02/24 06:10:00;;;;;;;2.2;2.2;;;;;;;2.8;100.0;100950;;;;
2023/02/24 06:11:00;;;;;;;2.2;2.2;;;;;;;2.7;100.0;100950;;;;
2023/02/24 06:12:01;;;;;;;2.2;2.2;;;;;;;2.7;100.0;100950;;;;
2023/02/24 06:13:01;;;;;;;2.2;2.2;;;;;;;2.8;100.0;100950;;;;
2023/02/24 06:14:01;;;;;;;2.2;2.2;;;;;;;2.8;100.0;100950;;;;
2023/02/24 06:15:06;;;;;;;2.2;2.2;;;;;;;2.7;100.0;100950;;;;
2023/02/24 06:16:00;;;;;;;2.2;2.2;;;;;;;2.7;100.0;100950;;;;
2023/02/24 06:17:01;;;;;;;2.2;2.2;;;;;;;2.7;100.0;100950;;;;
2023/02/24 06:18:00;;;;;;;2.2;2.2;;;;;;;2.7;100.0;100950;;;;
2023/02/24 06:19:00;;;;;;;2.2;2.2;;;;;;;2.8;100.0;100950;;;;
2023/02/24 06:20:00;;;;;;;2.2;2.2;;;;;;;2.8;100.0;100950;;;;
2023/02/24 06:21:01;;;;;;;2.2;2.2;;;;;;;2.8;100.0;100940;;;;
2023/02/24 06:22:01;;;;;;;2.2;2.2;;;;;;;2.8;100.0;100940;;;;
2023/02/24 06:23:00;;;;;;;2.3;2.3;;;;;;;2.8;100.0;100940;;;;
2023/02/24 06:24:00;;;;;;;2.3;2.3;;;;;;;2.8;100.0;100940;;;;
2023/02/24 06:25:00;;;;;;;2.3;2.3;;;;;;;2.8;100.0;100930;;;;
2023/02/24 06:26:01;;;;;;;2.3;2.3;;;;;;;2.8;100.0;100930;;;;
2023/02/24 06:27:08;;;;;;;2.3;2.3;;;;;;;2.8;100.0;100920;;;;
2023/02/24 06:28:00;;;;;;;2.3;2.3;;;;;;;2.8;100.0;100920;;;;
2023/02/24 06:29:00;;;;;;;2.3;2.3;;;;;;;2.7;100.0;100920;;;;
2023/02/24 06:30:01;;;;;;;2.3;2.3;;;;;;;2.7;100.0;100920;;;;
2023/02/24 06:31:05;;;;;;;2.3;2.3;;;;;;;2.8;100.0;100920;;;;
2023/02/24 06:32:07;;;;;;;2.3;2.3;;;;;;;2.8;100.0;100920;;;;
2023/02/24 06:33:00;;;;;;;2.3;2.3;;;;;;;2.8;100.0;100920;;;;
2023/02/24 06:34:00;;;;;;;2.3;2.3;;;;;;;2.8;100.0;100920;;;;
2023/02/24 06:35:00;;;;;;;2.3;2.3;;;;;;;2.8;100.0;100910;;;;
2023/02/24 06:36:02;;;;;;;2.3;2.3;;;;;;;2.8;100.0;100910;;;;
2023/02/24 06:37:02;;;;;;;2.3;2.3;;;;;;;2.7;100.0;100910;;;;